Time;durP1;ratioP1;P1;durP2;ratioP2;P2;SDS_P1;SDS_P2;PMS_P1;PMS_P2;Temp;Humidity;BMP_temperature;BMP_pressure;BME280_temperature;BME280_humidity;BME280_pressure;Samples;Min_cycle;Max_cycle;Signal;HPM_P1;HPM_P2
2021/10/08 00:00:18;;;;;;;62.10;55.40;;;;;;;;;;7332424;19;162030;-15
2021/10/08 00:02:46;;;;;;;62.17;55.55;;;;;;;;;;7328698;19;162528;-15
2021/10/08 00:05:14;;;;;;;60.85;54.25;;;;;;;;;;7330293;19;154017;-15
2021/10/08 00:07:42;;;;;;;60.33;53.83;;;;;;;;;;7328716;19;153908;-16
2021/10/08 00:10:10;;;;;;;63.40;55.45;;;;;;;;;;7328351;19;161901;-14
2021/10/08 00:12:38;;;;;;;61.08;54.65;;;;;;;;;;7328373;19;162485;-15
2021/10/08 00:15:08;;;;;;;59.42;52.97;;;;;;;;;;7329671;19;153901;-15
2021/10/08 00:17:37;;;;;;;60.40;53.47;;;;;;;;;;7328117;19;153679;-13
2021/10/08 00:20:06;;;;;;;42.10;37.67;;;;;;;;;;7329390;19;161957;-15
2021/10/08 09:12:21;;;;;;;2.85;2.55;;;;;;;;;;7197619;19;3331387;-13
2021/10/08 09:14:58;;;;;;;2.40;2.10;;;;;;;;;;7364103;19;153809;-14
2021/10/08 09:17:27;;;;;;;2.17;1.98;;;;;;;;;;7364624;19;162341;-14
2021/10/08 09:20:11;;;;;;;2.60;2.03;;;;;;;;;;7366950;19;162689;-12
2021/10/08 09:22:41;;;;;;;1.90;1.77;;;;;;;;;;7367380;19;154082;-13
2021/10/08 09:25:12;;;;;;;1.70;1.60;;;;;;;;;;7368076;19;153730;-14
2021/10/08 09:27:42;;;;;;;2.10;1.98;;;;;;;;;;7367703;19;161807;-13
2021/10/08 09:30:11;;;;;;;1.30;1.30;;;;;;;;;;7367729;19;162428;-13
2021/10/08 09:32:45;;;;;;;1.73;1.20;;;;;;;;;;7367668;19;154098;-14
2021/10/08 09:35:16;;;;;;;1.27;1.20;;;;;;;;;;7366662;19;153722;-14
2021/10/08 09:37:53;;;;;;;1.60;1.50;;;;;;;;;;7367436;19;161795;-13
2021/10/08 09:40:34;;;;;;;2.05;1.15;;;;;;;;;;7366372;19;162486;-13
2021/10/08 09:43:08;;;;;;;1.08;1.08;;;;;;;;;;7367489;19;153966;-15
2021/10/08 09:45:52;;;;;;;1.10;1.00;;;;;;;;;;7368830;19;153554;-15
2021/10/08 09:48:35;;;;;;;1.35;1.20;;;;;;;;;;7363804;19;161881;-15
2021/10/08 09:51:12;;;;;;;0.95;0.95;;;;;;;;;;7362798;19;162640;-17
2021/10/08 09:53:46;;;;;;;0.88;0.88;;;;;;;;;;7363920;19;153934;-13
2021/10/08 09:56:39;;;;;;;1.02;0.93;;;;;;;;;;7363874;19;153467;-14
2021/10/08 09:59:12;;;;;;;1.13;0.68;;;;;;;;;;7362373;19;161943;-15
2021/10/08 10:01:45;;;;;;;;;;;;;;;;;;7361136;19;162607;-16
2021/10/08 10:04:12;;;;;;;0.88;0.88;;;;;;;;;;7362980;19;154347;-16
2021/10/08 10:06:42;;;;;;;0.57;0.57;;;;;;;;;;7362463;19;153490;-14
2021/10/08 10:09:10;;;;;;;1.00;0.90;;;;;;;;;;7361810;19;162043;-15
2021/10/08 10:11:39;;;;;;;2.83;1.15;;;;;;;;;;7353251;19;162510;-21
2021/10/08 10:14:07;;;;;;;0.90;0.90;;;;;;;;;;7335105;19;153875;-17
2021/10/08 10:16:37;;;;;;;1.50;0.82;;;;;;;;;;7334510;19;153584;-15
2021/10/08 10:19:05;;;;;;;1.08;0.75;;;;;;;;;;7334098;19;161845;-16
2021/10/08 10:21:37;;;;;;;0.70;0.70;;;;;;;;;;7331202;19;162624;-13
2021/10/08 10:24:07;;;;;;;0.70;0.70;;;;;;;;;;7333032;19;154294;-13
2021/10/08 10:26:35;;;;;;;0.47;0.45;;;;;;;;;;7334110;19;153624;-18
2021/10/08 10:29:03;;;;;;;1.65;0.45;;;;;;;;;;7333748;19;161877;-17
2021/10/08 10:31:33;;;;;;;0.43;0.43;;;;;;;;;;7336496;19;162524;-16
2021/10/08 10:34:02;;;;;;;0.60;0.60;;;;;;;;;;7336696;19;154221;-14
2021/10/08 10:36:38;;;;;;;0.73;0.70;;;;;;;;;;7336785;19;153626;-17
2021/10/08 10:39:15;;;;;;;0.50;0.50;;;;;;;;;;7336428;19;161837;-16
2021/10/08 10:42:06;;;;;;;0.70;0.70;;;;;;;;;;7335251;19;162448;-14
2021/10/08 10:44:39;;;;;;;1.42;0.50;;;;;;;;;;7327274;19;154105;-17
2021/10/08 10:47:33;;;;;;;1.00;0.43;;;;;;;;;;7337054;19;153750;-14
2021/10/08 10:50:26;;;;;;;0.50;0.50;;;;;;;;;;7330933;19;161823;-14
2021/10/08 10:52:59;;;;;;;0.50;0.50;;;;;;;;;;7333216;19;162743;-15
2021/10/08 10:55:32;;;;;;;0.95;0.50;;;;;;;;;;7333597;19;154093;-15
2021/10/08 10:58:06;;;;;;;0.45;0.45;;;;;;;;;;7333355;19;153758;-14
2021/10/08 11:00:37;;;;;;;0.57;0.57;;;;;;;;;;7332240;19;161945;-14
2021/10/08 11:03:07;;;;;;;0.60;0.60;;;;;;;;;;7332748;19;162471;-13
2021/10/08 11:05:38;;;;;;;0.40;0.40;;;;;;;;;;7332981;19;153944;-15
2021/10/08 11:08:14;;;;;;;0.40;0.40;;;;;;;;;;7332716;19;153644;-14
2021/10/08 11:11:00;;;;;;;0.40;0.40;;;;;;;;;;7331870;19;161979;-14
2021/10/08 11:13:36;;;;;;;0.50;0.50;;;;;;;;;;7332255;19;162506;-15
2021/10/08 11:16:10;;;;;;;0.50;0.50;;;;;;;;;;7332656;19;154330;-14
2021/10/08 11:18:46;;;;;;;0.95;0.47;;;;;;;;;;7332509;19;153504;-16
2021/10/08 11:21:34;;;;;;;0.85;0.70;;;;;;;;;;7331176;19;161855;-14
2021/10/08 11:24:19;;;;;;;0.40;0.40;;;;;;;;;;7328431;19;162628;-16
2021/10/08 11:27:03;;;;;;;0.50;0.50;;;;;;;;;;7332484;19;153899;-17
2021/10/08 11:29:33;;;;;;;0.60;0.60;;;;;;;;;;7330882;19;153634;-17
2021/10/08 11:32:02;;;;;;;0.40;0.40;;;;;;;;;;7334736;19;162050;-13
2021/10/08 11:34:31;;;;;;;0.50;0.50;;;;;;;;;;7333910;19;162588;-14
2021/10/08 11:37:00;;;;;;;0.40;0.40;;;;;;;;;;7334808;19;153953;-14
2021/10/08 11:39:29;;;;;;;0.75;0.50;;;;;;;;;;7334391;19;153621;-14
2021/10/08 11:42:02;;;;;;;0.40;0.40;;;;;;;;;;7333097;19;161910;-16
2021/10/08 11:44:35;;;;;;;0.65;0.40;;;;;;;;;;7334810;19;162480;-15
2021/10/08 11:47:21;;;;;;;0.50;0.50;;;;;;;;;;7334881;19;154202;-16
2021/10/08 11:50:01;;;;;;;0.43;0.43;;;;;;;;;;7327236;19;153597;-13
2021/10/08 11:52:35;;;;;;;0.50;0.50;;;;;;;;;;7334968;19;162033;-17
2021/10/08 11:55:27;;;;;;;0.60;0.60;;;;;;;;;;7334974;19;162733;-17
2021/10/08 11:58:10;;;;;;;0.60;0.50;;;;;;;;;;7334498;19;153754;-15
2021/10/08 12:00:47;;;;;;;0.43;0.43;;;;;;;;;;7334097;19;153746;-13
2021/10/08 12:03:21;;;;;;;0.52;0.52;;;;;;;;;;7333624;19;161944;-16
2021/10/08 12:05:52;;;;;;;0.40;0.40;;;;;;;;;;7331723;19;162524;-18
2021/10/08 12:08:32;;;;;;;0.52;0.40;;;;;;;;;;7333579;19;154007;-17
2021/10/08 12:11:03;;;;;;;0.85;0.50;;;;;;;;;;7333562;19;153654;-14
2021/10/08 12:14:04;;;;;;;0.60;0.60;;;;;;;;;;7334071;19;162004;-14
2021/10/08 12:16:45;;;;;;;0.60;0.60;;;;;;;;;;7334527;19;162468;-13
2021/10/08 12:19:15;;;;;;;0.40;0.40;;;;;;;;;;7331156;19;154005;-13
2021/10/08 12:21:49;;;;;;;0.90;0.40;;;;;;;;;;7328532;19;153795;-15
2021/10/08 12:24:22;;;;;;;0.50;0.50;;;;;;;;;;7330367;19;161853;-17
2021/10/08 12:26:54;;;;;;;0.38;0.38;;;;;;;;;;7330350;19;162661;-14
2021/10/08 12:29:22;;;;;;;0.63;0.63;;;;;;;;;;7329955;19;153957;-14
2021/10/08 12:31:53;;;;;;;0.47;0.47;;;;;;;;;;7334725;19;153569;-14
2021/10/08 12:34:34;;;;;;;0.77;0.40;;;;;;;;;;7329154;19;161862;-14
2021/10/08 12:37:05;;;;;;;0.60;0.52;;;;;;;;;;7328924;19;162507;-13
2021/10/08 12:39:38;;;;;;;0.40;0.40;;;;;;;;;;7330141;19;154034;-13
2021/10/08 12:42:11;;;;;;;0.50;0.50;;;;;;;;;;7328274;19;153281;-19
2021/10/08 12:44:58;;;;;;;0.55;0.55;;;;;;;;;;7329169;19;162076;-16
2021/10/08 12:47:38;;;;;;;0.40;0.40;;;;;;;;;;7328714;19;162456;-18
2021/10/08 12:50:14;;;;;;;0.50;0.50;;;;;;;;;;7330409;19;153915;-13
2021/10/08 12:52:46;;;;;;;0.52;0.52;;;;;;;;;;7333948;19;153595;-13
2021/10/08 12:55:15;;;;;;;0.40;0.40;;;;;;;;;;7332036;19;161976;-15
2021/10/08 12:58:06;;;;;;;0.57;0.40;;;;;;;;;;7329461;19;163252;-13
2021/10/08 13:00:44;;;;;;;0.30;0.30;;;;;;;;;;7329277;19;154690;-16
2021/10/08 13:03:35;;;;;;;0.60;0.50;;;;;;;;;;7326162;19;153623;-16
2021/10/08 13:06:05;;;;;;;0.32;0.32;;;;;;;;;;7331806;19;162150;-14
2021/10/08 13:08:35;;;;;;;0.30;0.30;;;;;;;;;;7329087;19;162585;-16
2021/10/08 13:11:10;;;;;;;0.50;0.50;;;;;;;;;;7329821;19;153996;-16
2021/10/08 13:13:49;;;;;;;0.35;0.35;;;;;;;;;;7332111;19;153637;-13
2021/10/08 13:16:28;;;;;;;0.93;0.50;;;;;;;;;;7332392;19;162202;-15
2021/10/08 13:18:58;;;;;;;0.52;0.52;;;;;;;;;;7330751;19;162517;-14
2021/10/08 13:21:26;;;;;;;2.08;0.60;;;;;;;;;;7332062;19;154176;-16
2021/10/08 13:23:57;;;;;;;0.40;0.40;;;;;;;;;;7332728;19;155382;-13
2021/10/08 13:26:25;;;;;;;0.40;0.40;;;;;;;;;;7331653;19;161842;-15
2021/10/08 13:28:53;;;;;;;0.30;0.30;;;;;;;;;;7325201;19;162193;-16
2021/10/08 13:31:26;;;;;;;2.05;0.55;;;;;;;;;;7330142;19;154091;-17
2021/10/08 13:33:54;;;;;;;0.60;0.60;;;;;;;;;;7330739;19;153621;-15
2021/10/08 13:36:21;;;;;;;0.60;0.60;;;;;;;;;;7331890;19;161844;-15
2021/10/08 13:38:49;;;;;;;1.85;0.70;;;;;;;;;;7330858;19;162713;-15
2021/10/08 13:41:17;;;;;;;0.68;0.50;;;;;;;;;;7330797;19;154248;-15
2021/10/08 13:43:45;;;;;;;0.52;0.50;;;;;;;;;;7332282;19;153694;-13
2021/10/08 13:46:13;;;;;;;0.88;0.50;;;;;;;;;;7331264;19;162725;-17
2021/10/08 13:48:41;;;;;;;0.73;0.70;;;;;;;;;;7336310;19;162450;-17
2021/10/08 13:51:16;;;;;;;0.60;0.60;;;;;;;;;;7338230;19;153990;-16
2021/10/08 13:53:45;;;;;;;;;;;;;;;;;;7339400;19;153570;-16
2021/10/08 13:56:15;;;;;;;1.45;0.80;;;;;;;;;;7338156;19;161932;-15
2021/10/08 13:58:43;;;;;;;1.00;0.50;;;;;;;;;;7337884;19;162453;-15
2021/10/08 14:01:12;;;;;;;0.60;0.60;;;;;;;;;;7336071;19;153965;-15
2021/10/08 14:03:56;;;;;;;0.73;0.68;;;;;;;;;;7336274;19;153675;-13
2021/10/08 14:11:29;;;;;;;0.93;0.70;;;;;;;;;;7333490;19;153928;-13
2021/10/08 14:13:56;;;;;;;0.80;0.70;;;;;;;;;;7334751;19;153580;-15
2021/10/08 14:16:24;;;;;;;0.63;0.60;;;;;;;;;;7334280;19;162055;-15
2021/10/08 14:18:52;;;;;;;0.85;0.70;;;;;;;;;;7334173;19;162459;-16
2021/10/08 14:21:20;;;;;;;0.70;0.55;;;;;;;;;;7334643;19;154086;-16
2021/10/08 14:23:48;;;;;;;0.50;0.50;;;;;;;;;;7331954;19;153520;-13
2021/10/08 14:26:16;;;;;;;0.60;0.60;;;;;;;;;;7334052;19;161931;-16
2021/10/08 14:28:44;;;;;;;0.88;0.70;;;;;;;;;;7334161;19;162480;-15
2021/10/08 14:31:12;;;;;;;0.95;0.70;;;;;;;;;;7333127;19;154094;-14
2021/10/08 14:33:40;;;;;;;0.57;0.50;;;;;;;;;;7333770;19;153502;-15
2021/10/08 14:36:08;;;;;;;0.80;0.70;;;;;;;;;;7335374;19;161874;-16
2021/10/08 14:38:35;;;;;;;0.73;0.70;;;;;;;;;;7336078;19;162617;-15
2021/10/08 14:41:03;;;;;;;0.60;0.60;;;;;;;;;;7336479;19;154425;-18
2021/10/08 14:43:31;;;;;;;0.80;0.80;;;;;;;;;;7335165;19;153717;-19
2021/10/08 14:46:00;;;;;;;1.00;0.90;;;;;;;;;;7335151;19;162025;-22
2021/10/08 14:48:38;;;;;;;1.80;0.80;;;;;;;;;;7336276;19;162491;-17
2021/10/08 14:51:06;;;;;;;0.80;0.80;;;;;;;;;;7335940;19;154064;-17
2021/10/08 14:53:34;;;;;;;0.80;0.80;;;;;;;;;;7334368;19;153800;-16
2021/10/08 14:56:25;;;;;;;1.25;0.82;;;;;;;;;;7335966;19;161957;-18
2021/10/08 14:58:53;;;;;;;1.52;1.00;;;;;;;;;;7335994;19;162516;-13
2021/10/08 15:01:24;;;;;;;1.33;0.90;;;;;;;;;;7336860;19;153972;-14
2021/10/08 15:03:52;;;;;;;0.70;0.70;;;;;;;;;;7333512;19;153502;-14
2021/10/08 15:06:20;;;;;;;1.10;1.00;;;;;;;;;;7335433;19;161941;-16
2021/10/08 15:08:48;;;;;;;1.48;1.08;;;;;;;;;;7333882;19;162552;-13
2021/10/08 15:11:16;;;;;;;1.08;1.05;;;;;;;;;;7334289;19;154148;-14
2021/10/08 15:13:45;;;;;;;0.98;0.93;;;;;;;;;;7335826;19;153501;-14
2021/10/08 15:16:13;;;;;;;1.23;1.13;;;;;;;;;;7334942;19;162063;-12
2021/10/08 15:18:41;;;;;;;1.48;0.98;;;;;;;;;;7336114;19;162466;-12
2021/10/08 15:21:09;;;;;;;1.17;1.05;;;;;;;;;;7333867;19;153931;-12
2021/10/08 15:23:37;;;;;;;1.58;1.10;;;;;;;;;;7332339;19;153626;-15
2021/10/08 15:26:05;;;;;;;1.20;1.10;;;;;;;;;;7335235;19;162059;-12
2021/10/08 15:28:34;;;;;;;1.33;1.23;;;;;;;;;;7336463;19;162762;-14
2021/10/08 15:31:02;;;;;;;1.00;1.00;;;;;;;;;;7332574;19;154002;-14
2021/10/08 15:33:30;;;;;;;1.60;1.20;;;;;;;;;;7334163;19;153517;-15
2021/10/08 15:35:57;;;;;;;1.50;1.17;;;;;;;;;;7334722;19;162171;-16
2021/10/08 15:38:25;;;;;;;1.38;1.02;;;;;;;;;;7334451;19;162670;-16
2021/10/08 15:40:53;;;;;;;1.02;1.00;;;;;;;;;;7334179;19;153946;-18
2021/10/08 15:43:21;;;;;;;1.52;1.10;;;;;;;;;;7331757;19;153711;-13
2021/10/08 15:45:49;;;;;;;0.80;0.80;;;;;;;;;;7335030;19;162232;-16
2021/10/08 15:48:17;;;;;;;1.23;1.10;;;;;;;;;;7335195;19;162856;-13
2021/10/08 15:50:45;;;;;;;1.30;1.23;;;;;;;;;;7335456;19;154182;-13
2021/10/08 15:53:12;;;;;;;1.20;1.10;;;;;;;;;;7335373;19;154212;-16
2021/10/08 15:55:40;;;;;;;1.00;1.00;;;;;;;;;;7334757;19;161878;-14
2021/10/08 15:58:08;;;;;;;0.82;0.82;;;;;;;;;;7334895;19;162518;-12
2021/10/08 16:00:36;;;;;;;1.00;1.00;;;;;;;;;;7333263;19;154450;-13
2021/10/08 16:03:04;;;;;;;0.90;0.90;;;;;;;;;;7333682;19;153847;-13
2021/10/08 16:05:34;;;;;;;1.23;1.10;;;;;;;;;;7334028;19;161969;-13
2021/10/08 16:08:06;;;;;;;1.20;1.10;;;;;;;;;;7334233;19;162834;-17
2021/10/08 16:10:38;;;;;;;0.90;0.90;;;;;;;;;;7331629;19;154367;-23
2021/10/08 16:13:07;;;;;;;2.00;1.10;;;;;;;;;;7333978;19;153835;-13
2021/10/08 16:15:35;;;;;;;0.80;0.80;;;;;;;;;;7333983;19;162023;-15
2021/10/08 16:21:02;;;;;;;0.80;0.80;;;;;;;;;;7333330;19;154014;-15
2021/10/08 16:23:30;;;;;;;1.00;1.00;;;;;;;;;;7332728;19;153672;-16
2021/10/08 16:25:58;;;;;;;0.70;0.70;;;;;;;;;;7333668;19;161903;-14
2021/10/08 16:28:26;;;;;;;0.80;0.80;;;;;;;;;;7334062;19;162793;-21
2021/10/08 16:30:54;;;;;;;1.00;0.93;;;;;;;;;;7334097;19;154022;-15
2021/10/08 16:33:22;;;;;;;0.68;0.68;;;;;;;;;;7332950;19;153907;-15
2021/10/08 16:35:52;;;;;;;0.60;0.60;;;;;;;;;;7333407;19;161787;-13
2021/10/08 16:38:38;;;;;;;0.60;0.60;;;;;;;;;;7334048;19;162472;-15
2021/10/08 16:41:07;;;;;;;0.80;0.80;;;;;;;;;;7333403;19;154028;-15
2021/10/08 16:43:35;;;;;;;0.82;0.80;;;;;;;;;;7332332;19;153566;-14
2021/10/08 16:46:03;;;;;;;0.70;0.70;;;;;;;;;;7332783;19;161949;-13
2021/10/08 16:48:31;;;;;;;0.60;0.60;;;;;;;;;;7333320;19;162598;-14
2021/10/08 16:51:00;;;;;;;0.60;0.60;;;;;;;;;;7331558;19;154058;-13
2021/10/08 16:53:28;;;;;;;0.88;0.88;;;;;;;;;;7333273;19;154227;-16
2021/10/08 16:55:56;;;;;;;0.55;0.55;;;;;;;;;;7333268;19;161884;-17
2021/10/08 16:58:26;;;;;;;0.70;0.60;;;;;;;;;;7331951;19;162504;-13
2021/10/08 17:00:54;;;;;;;1.02;0.90;;;;;;;;;;7332409;19;153935;-15
2021/10/08 17:03:22;;;;;;;0.60;0.60;;;;;;;;;;7331326;19;153511;-15
2021/10/08 17:05:50;;;;;;;0.70;0.70;;;;;;;;;;7333001;19;161963;-15
2021/10/08 17:08:18;;;;;;;0.63;0.63;;;;;;;;;;7329292;19;162588;-14
2021/10/08 17:10:47;;;;;;;0.60;0.60;;;;;;;;;;7326925;19;154049;-13
2021/10/08 17:13:15;;;;;;;0.70;0.70;;;;;;;;;;7329401;19;153583;-16
2021/10/08 17:15:42;;;;;;;0.60;0.60;;;;;;;;;;7329199;19;161758;-12
2021/10/08 17:18:10;;;;;;;0.50;0.50;;;;;;;;;;7329078;19;162496;-16
2021/10/08 17:20:43;;;;;;;0.60;0.60;;;;;;;;;;7331249;19;153972;-13
2021/10/08 17:23:12;;;;;;;1.13;0.70;;;;;;;;;;7333333;19;153585;-14
2021/10/08 17:26:08;;;;;;;1.20;0.60;;;;;;;;;;7335144;19;161795;-14
2021/10/08 17:33:49;;;;;;;0.75;0.60;;;;;;;;;;7335477;19;153582;-14
2021/10/08 17:36:23;;;;;;;1.48;0.60;;;;;;;;;;7334005;19;161832;-15
2021/10/08 17:38:53;;;;;;;0.60;0.60;;;;;;;;;;7333977;19;162511;-14
2021/10/08 17:41:21;;;;;;;0.50;0.50;;;;;;;;;;7335587;19;153984;-14
2021/10/08 17:43:49;;;;;;;0.65;0.65;;;;;;;;;;7334055;19;153630;-17
2021/10/08 17:46:18;;;;;;;0.40;0.40;;;;;;;;;;7333490;19;161771;-15
2021/10/08 17:48:50;;;;;;;0.45;0.45;;;;;;;;;;7333778;19;162587;-14
2021/10/08 17:51:21;;;;;;;0.50;0.50;;;;;;;;;;7335394;19;154427;-16
2021/10/08 17:53:49;;;;;;;0.75;0.63;;;;;;;;;;7335220;19;153562;-14
2021/10/08 17:56:19;;;;;;;0.55;0.55;;;;;;;;;;7333634;19;162006;-15
2021/10/08 17:58:51;;;;;;;0.60;0.60;;;;;;;;;;7334349;19;163146;-16
2021/10/08 18:01:21;;;;;;;0.52;0.52;;;;;;;;;;7335011;19;154057;-15
2021/10/08 18:03:50;;;;;;;0.40;0.40;;;;;;;;;;7333937;19;153555;-15
2021/10/08 18:06:19;;;;;;;0.50;0.50;;;;;;;;;;7334643;19;162246;-14
2021/10/08 18:08:46;;;;;;;0.40;0.40;;;;;;;;;;7334395;19;162566;-13
2021/10/08 18:11:16;;;;;;;0.50;0.50;;;;;;;;;;7332578;19;154008;-16
2021/10/08 18:13:44;;;;;;;0.43;0.43;;;;;;;;;;7334742;19;153552;-24
2021/10/08 18:16:14;;;;;;;0.43;0.43;;;;;;;;;;7334282;19;162616;-14
2021/10/08 18:18:42;;;;;;;0.50;0.50;;;;;;;;;;7333991;19;162467;-12
2021/10/08 18:21:11;;;;;;;0.50;0.50;;;;;;;;;;7334216;19;153946;-15
2021/10/08 18:23:40;;;;;;;0.50;0.50;;;;;;;;;;7333594;19;153995;-17
2021/10/08 18:26:09;;;;;;;0.40;0.40;;;;;;;;;;7333962;19;162109;-15
2021/10/08 18:28:37;;;;;;;0.50;0.50;;;;;;;;;;7332864;19;162634;-17
2021/10/08 18:31:06;;;;;;;0.50;0.50;;;;;;;;;;7333092;19;154002;-15
2021/10/08 18:33:34;;;;;;;0.50;0.50;;;;;;;;;;7332102;19;153758;-13
2021/10/08 18:36:04;;;;;;;0.60;0.60;;;;;;;;;;7333788;19;161921;-16
2021/10/08 18:38:32;;;;;;;0.40;0.40;;;;;;;;;;7332507;19;162650;-21
2021/10/08 18:41:00;;;;;;;0.50;0.50;;;;;;;;;;7334063;19;154038;-14
2021/10/08 18:43:27;;;;;;;0.63;0.63;;;;;;;;;;7332190;19;153774;-13
2021/10/08 18:45:57;;;;;;;0.40;0.40;;;;;;;;;;7333425;19;161781;-13
2021/10/08 18:48:25;;;;;;;0.60;0.60;;;;;;;;;;7332510;19;162563;-14
2021/10/08 18:50:53;;;;;;;0.40;0.40;;;;;;;;;;7333646;19;154008;-14
2021/10/08 18:53:21;;;;;;;0.40;0.40;;;;;;;;;;7333705;19;153569;-16
2021/10/08 18:55:49;;;;;;;0.60;0.60;;;;;;;;;;7333416;19;162041;-14
2021/10/08 18:58:17;;;;;;;0.40;0.40;;;;;;;;;;7333242;19;162592;-15
2021/10/08 19:00:45;;;;;;;0.50;0.50;;;;;;;;;;7333077;19;154271;-15
2021/10/08 19:03:15;;;;;;;0.50;0.50;;;;;;;;;;7333143;19;153534;-17
2021/10/08 19:05:45;;;;;;;0.40;0.40;;;;;;;;;;7330512;19;162118;-14
2021/10/08 19:08:18;;;;;;;0.38;0.38;;;;;;;;;;7332893;19;162489;-15
2021/10/08 19:11:50;;;;;;;0.38;0.38;;;;;;;;;;7332550;19;154000;-15
2021/10/08 19:22:07;;;;;;;0.30;0.30;;;;;;;;;;7332923;19;154193;-14
2021/10/08 19:24:35;;;;;;;0.60;0.60;;;;;;;;;;7331419;19;153600;-14
2021/10/08 19:27:04;;;;;;;0.40;0.40;;;;;;;;;;7332356;19;161833;-12
2021/10/08 19:29:32;;;;;;;0.47;0.47;;;;;;;;;;7332232;19;162588;-15
2021/10/08 19:32:00;;;;;;;0.47;0.47;;;;;;;;;;7331361;19;154691;-15
2021/10/08 19:34:28;;;;;;;0.40;0.40;;;;;;;;;;7332620;19;153679;-16
2021/10/08 19:36:56;;;;;;;0.50;0.50;;;;;;;;;;7332125;19;161968;-15
2021/10/08 19:39:24;;;;;;;0.50;0.50;;;;;;;;;;7331832;19;163034;-15
2021/10/08 19:41:53;;;;;;;0.43;0.43;;;;;;;;;;7332126;19;154187;-16
2021/10/08 19:44:27;;;;;;;0.30;0.30;;;;;;;;;;7329222;19;153651;-14
2021/10/08 19:46:55;;;;;;;0.47;0.47;;;;;;;;;;7332135;19;161844;-14
2021/10/08 19:49:24;;;;;;;0.40;0.40;;;;;;;;;;7334572;19;162665;-14
2021/10/08 19:51:52;;;;;;;0.47;0.47;;;;;;;;;;7332641;19;154258;-14
2021/10/08 19:54:22;;;;;;;0.43;0.43;;;;;;;;;;7328584;19;156006;-14
2021/10/08 19:56:50;;;;;;;0.80;0.50;;;;;;;;;;7334210;19;162081;-16
2021/10/08 19:59:18;;;;;;;1.02;0.50;;;;;;;;;;7334491;19;162956;-16
2021/10/08 20:01:46;;;;;;;0.77;0.43;;;;;;;;;;7332475;19;154184;-14
2021/10/08 20:04:15;;;;;;;0.40;0.40;;;;;;;;;;7332309;19;153403;-17
2021/10/08 20:07:00;;;;;;;0.90;0.90;;;;;;;;;;7331202;19;162063;-13
2021/10/08 20:14:52;;;;;;;3.00;1.60;;;;;;;;;;7331306;19;153669;-14
2021/10/08 20:17:20;;;;;;;4.90;2.00;;;;;;;;;;7330793;19;161685;-15
2021/10/08 20:19:48;;;;;;;12.40;8.77;;;;;;;;;;7330849;19;162691;-15
2021/10/08 20:22:16;;;;;;;14.73;11.07;;;;;;;;;;7332374;19;154088;-16
2021/10/08 20:24:44;;;;;;;12.55;9.45;;;;;;;;;;7332512;19;153678;-16
2021/10/08 20:27:13;;;;;;;13.23;9.57;;;;;;;;;;7333553;19;161882;-17
2021/10/08 20:29:42;;;;;;;12.30;9.25;;;;;;;;;;7332289;19;163589;-14
2021/10/08 20:32:10;;;;;;;13.00;9.23;;;;;;;;;;7334027;19;154008;-16
2021/10/08 20:34:39;;;;;;;13.18;9.60;;;;;;;;;;7333424;19;153627;-15
2021/10/08 20:37:07;;;;;;;11.15;8.95;;;;;;;;;;7332264;19;161972;-15
2021/10/08 20:39:35;;;;;;;12.27;10.20;;;;;;;;;;7333094;19;162436;-14
2021/10/08 20:42:03;;;;;;;12.02;9.35;;;;;;;;;;7333129;19;154165;-16
2021/10/08 20:44:30;;;;;;;13.48;9.77;;;;;;;;;;7332897;19;153660;-14
2021/10/08 20:46:59;;;;;;;12.18;9.45;;;;;;;;;;7332131;19;161956;-14
2021/10/08 20:49:28;;;;;;;12.60;9.70;;;;;;;;;;7333089;19;163011;-15
2021/10/08 20:51:56;;;;;;;11.18;9.18;;;;;;;;;;7333428;19;153995;-14
2021/10/08 20:54:24;;;;;;;10.65;9.07;;;;;;;;;;7332641;19;153677;-14
2021/10/08 20:56:52;;;;;;;11.30;9.05;;;;;;;;;;7331594;19;162407;-15
2021/10/08 20:59:19;;;;;;;10.50;8.85;;;;;;;;;;7333236;19;162821;-13
2021/10/08 21:01:48;;;;;;;12.23;8.98;;;;;;;;;;7331458;19;153377;-14
2021/10/08 21:04:16;;;;;;;12.13;9.70;;;;;;;;;;7332850;19;153557;-15
2021/10/08 21:06:45;;;;;;;11.90;9.75;;;;;;;;;;7332355;19;162083;-16
2021/10/08 21:09:14;;;;;;;10.63;8.98;;;;;;;;;;7327409;19;162541;-15
2021/10/08 21:11:43;;;;;;;15.45;11.20;;;;;;;;;;7325579;19;154094;-14
2021/10/08 21:14:11;;;;;;;13.90;10.15;;;;;;;;;;7329562;19;153484;-16
2021/10/08 21:16:41;;;;;;;12.88;9.75;;;;;;;;;;7328492;19;162227;-16
2021/10/08 21:19:09;;;;;;;10.20;8.68;;;;;;;;;;7329792;19;162827;-16
2021/10/08 21:21:37;;;;;;;11.05;8.85;;;;;;;;;;7330499;19;153909;-16
2021/10/08 21:24:05;;;;;;;10.20;8.43;;;;;;;;;;7329591;19;153549;-19
2021/10/08 21:26:35;;;;;;;10.10;8.70;;;;;;;;;;7328496;19;162190;-48
2021/10/08 21:29:07;;;;;;;10.20;8.88;;;;;;;;;;7328636;19;162464;-18
2021/10/08 21:31:36;;;;;;;10.35;8.77;;;;;;;;;;7332176;19;153881;-18
2021/10/08 21:34:06;;;;;;;9.50;8.50;;;;;;;;;;7331418;19;153897;-15
2021/10/08 21:36:37;;;;;;;9.05;8.15;;;;;;;;;;7330854;19;161909;-12
2021/10/08 21:39:11;;;;;;;9.52;8.38;;;;;;;;;;7329512;19;162566;-16
2021/10/08 21:44:09;;;;;;;10.10;9.02;;;;;;;;;;7331021;19;153594;-13
2021/10/08 21:46:37;;;;;;;9.82;8.73;;;;;;;;;;7326529;19;161965;-15
2021/10/08 21:49:05;;;;;;;9.43;8.50;;;;;;;;;;7330458;19;162653;-16
2021/10/08 21:51:33;;;;;;;11.45;8.82;;;;;;;;;;7330945;19;153981;-15
2021/10/08 21:54:01;;;;;;;10.15;8.65;;;;;;;;;;7330638;19;153666;-17
2021/10/08 21:56:29;;;;;;;10.57;8.57;;;;;;;;;;7329045;19;162012;-17
2021/10/08 21:58:57;;;;;;;9.48;8.25;;;;;;;;;;7328824;19;162990;-14
2021/10/08 22:01:28;;;;;;;11.20;8.55;;;;;;;;;;7330387;19;153993;-14
2021/10/08 22:04:04;;;;;;;10.93;8.75;;;;;;;;;;7330809;19;153600;-15
2021/10/08 22:06:32;;;;;;;9.90;8.48;;;;;;;;;;7326739;19;161598;-16
2021/10/08 22:09:04;;;;;;;10.02;8.98;;;;;;;;;;7333802;19;162506;-16
2021/10/08 22:11:35;;;;;;;9.38;7.97;;;;;;;;;;7336525;19;154340;-13
2021/10/08 22:14:03;;;;;;;9.63;8.63;;;;;;;;;;7337108;19;153669;-16
2021/10/08 22:16:32;;;;;;;8.77;7.90;;;;;;;;;;7335542;19;162077;-14
2021/10/08 22:19:21;;;;;;;8.20;6.88;;;;;;;;;;7335952;19;162773;-13
2021/10/08 22:21:51;;;;;;;7.13;6.40;;;;;;;;;;7337074;19;154257;-15
2021/10/08 22:34:52;;;;;;;7.57;6.80;;;;;;;;;;7335911;19;153583;-13
2021/10/08 22:37:21;;;;;;;7.63;6.93;;;;;;;;;;7336744;19;161813;-16
2021/10/08 22:39:49;;;;;;;7.97;7.18;;;;;;;;;;7334312;19;162516;-15
2021/10/08 22:42:17;;;;;;;7.03;6.32;;;;;;;;;;7334896;19;154109;-15
2021/10/08 22:44:49;;;;;;;6.88;6.18;;;;;;;;;;7335265;19;153598;-13
2021/10/08 22:47:16;;;;;;;7.22;6.53;;;;;;;;;;7336231;19;162004;-14
2021/10/08 22:49:45;;;;;;;6.97;6.28;;;;;;;;;;7336289;19;162443;-15
2021/10/08 22:52:13;;;;;;;6.82;6.10;;;;;;;;;;7333954;19;154145;-16
2021/10/08 22:54:41;;;;;;;7.55;6.25;;;;;;;;;;7334848;19;153662;-14
2021/10/08 22:57:09;;;;;;;6.72;6.03;;;;;;;;;;7335479;19;162003;-13
2021/10/08 22:59:37;;;;;;;6.88;6.28;;;;;;;;;;7335652;19;162654;-14
2021/10/08 23:02:05;;;;;;;6.70;6.00;;;;;;;;;;7333525;19;153765;-14
2021/10/08 23:04:33;;;;;;;7.05;6.35;;;;;;;;;;7333939;19;153858;-16
2021/10/08 23:07:09;;;;;;;7.57;6.78;;;;;;;;;;7331835;19;161918;-16
2021/10/08 23:17:29;;;;;;;7.40;6.63;;;;;;;;;;7332186;19;162385;-16
2021/10/08 23:19:59;;;;;;;6.80;6.20;;;;;;;;;;7335780;19;162513;-15
2021/10/08 23:22:27;;;;;;;7.03;6.32;;;;;;;;;;7333109;19;154048;-15
2021/10/08 23:24:55;;;;;;;6.70;6.10;;;;;;;;;;7334152;19;153574;-15
2021/10/08 23:27:23;;;;;;;6.97;6.28;;;;;;;;;;7331789;19;161854;-14
2021/10/08 23:29:51;;;;;;;6.43;5.82;;;;;;;;;;7333995;19;162647;-14
2021/10/08 23:32:19;;;;;;;7.10;6.40;;;;;;;;;;7332933;19;154155;-13
